Sealston, VA (22547)

12:33 AM EDT on September 21, 2014 (GMT -0400)
Worman Estates | Change Station
CLOSE
Current Station
Personal Weather Station
Location: King George, VA
Elevation: 100 ft
Nearby Weather Stations

Elev 100 ft 38.28 °N, 77.29 °W | Updated 2 minutes ago

Clear
Clear
64.4 °F
Feels Like 64.4 °F
N
0.0
Wind Variable Wind from NW
Gusts 0.7 mph

Today
High -- | Low -- °F
--% Chance of Precip.
Yesterday
High -- | Low -- °F
Precip. -- in
6:56 AM 7:07 PM
Waning Crescent, 9% visible
Pressure 30.04 in
Visibility 10.0 miles
Clouds Scattered Clouds 10000 ft
Dew Point 62 °F
Humidity 92%
Rainfall 0.00 in
Snow Depth Not available.
UV 0 out of 12
Pollen 4.10 out of 12
Air Quality Not available.
Flu Activity Not available.
METAR KEZF 210415Z AUTO 00000KT 10SM SCT100 17/17 A3004 RMK AO2 T01720170

More Conditions Fewer Conditions

Pressure 30.04 in
Visibility 10.0 miles
Clouds Scattered Clouds 10000 ft
Dew Point 62 °F
Humidity 92%
Rainfall 0.00 in
Snow Depth Not available.
UV 0 out of 12
Pollen 4.10 out of 12
Air Quality Not available.
Flu Activity Not available.
METAR KEZF 210415Z AUTO 00000KT 10SM SCT100 17/17 A3004 RMK AO2 T01720170

More Conditions Fewer Conditions

10-Day Weather Forecast

Almanac

Astronomy

Sep. 21, 2014 Rise Set
Actual Time 6:56 AM EDT 7:07 PM EDT
Civil Twilight 6:29 AM EDT 7:34 PM EDT
Nautical Twilight 5:58 AM EDT 8:04 PM EDT
Astronomical Twilight 5:27 AM EDT 8:36 PM EDT
Moon 4:29 AM EDT 5:41 PM EDT
Length of Visible Light 13h 04m
Length of Day
12h 11m
Tomorrow will be 2m 27s shorter.
Waning Crescent, 9% of the Moon is Illuminated
Today
Waning Crescent
Sep 24
New
Oct 1
First Quarter
Oct 8
Full
Oct 15
Last Quarter

Yesterday's Extremes

State Highs State Lows

Community

WunderPhotos

Upload Photos

1,755,081 photos uploaded!

Nearby

Snow Depth

Station Depth Elevation
No new snow has been reported.

Earthquake Activity

City Distance Mag. Time & Date
No recent earthquake activity has been reported nearby.
Minimum magnitude displayed is 2.5.

Coastal Water Temperatures

Place Temperature
Washington, DC 73.9 °F
Lewisetta, VA 73.9 °F
Solomons Island, MD 75.9 °F

Nearby Weather Stations